sensor_id;sensor_type;location;lat;lon;timestamp;temperature;humidity
33927;DHT22;20485;50.992;5.550;2022-08-07T00:00:27;12.60;99.90
33927;DHT22;20485;50.992;5.550;2022-08-07T00:02:53;12.50;99.90
33927;DHT22;20485;50.992;5.550;2022-08-07T00:05:22;12.50;99.90
33927;DHT22;20485;50.992;5.550;2022-08-07T00:07:48;12.50;99.90
33927;DHT22;20485;50.992;5.550;2022-08-07T00:10:14;12.50;99.90
33927;DHT22;20485;50.992;5.550;2022-08-07T00:12:40;12.40;99.90
33927;DHT22;20485;50.992;5.550;2022-08-07T00:15:08;12.40;99.90
33927;DHT22;20485;50.992;5.550;2022-08-07T00:17:34;12.30;99.90
33927;DHT22;20485;50.992;5.550;2022-08-07T00:20:00;12.30;99.90
33927;DHT22;20485;50.992;5.550;2022-08-07T00:22:26;12.30;99.90
33927;DHT22;20485;50.992;5.550;2022-08-07T00:24:51;12.20;99.90
33927;DHT22;20485;50.992;5.550;2022-08-07T00:27:19;12.20;99.90
33927;DHT22;20485;50.992;5.550;2022-08-07T00:29:45;12.20;99.90
33927;DHT22;20485;50.992;5.550;2022-08-07T00:32:10;12.20;99.90
33927;DHT22;20485;50.992;5.550;2022-08-07T00:34:38;12.20;99.90
33927;DHT22;20485;50.992;5.550;2022-08-07T00:37:04;12.20;99.90
33927;DHT22;20485;50.992;5.550;2022-08-07T00:39:31;12.30;99.90
33927;DHT22;20485;50.992;5.550;2022-08-07T00:41:58;12.20;99.90
33927;DHT22;20485;50.992;5.550;2022-08-07T00:44:25;12.30;99.90
33927;DHT22;20485;50.992;5.550;2022-08-07T00:46:50;12.30;99.90
33927;DHT22;20485;50.992;5.550;2022-08-07T00:49:16;12.30;99.90
33927;DHT22;20485;50.992;5.550;2022-08-07T00:51:43;12.30;99.90
33927;DHT22;20485;50.992;5.550;2022-08-07T00:54:09;12.30;99.90
33927;DHT22;20485;50.992;5.550;2022-08-07T00:56:35;12.30;99.90
33927;DHT22;20485;50.992;5.550;2022-08-07T00:59:01;12.20;99.90
33927;DHT22;20485;50.992;5.550;2022-08-07T01:01:28;12.30;99.90
33927;DHT22;20485;50.992;5.550;2022-08-07T01:03:55;12.20;99.90
33927;DHT22;20485;50.992;5.550;2022-08-07T01:06:20;12.40;99.90
33927;DHT22;20485;50.992;5.550;2022-08-07T01:08:47;12.10;99.90
33927;DHT22;20485;50.992;5.550;2022-08-07T01:11:14;12.00;99.90
33927;DHT22;20485;50.992;5.550;2022-08-07T01:13:41;12.00;99.90
33927;DHT22;20485;50.992;5.550;2022-08-07T01:16:07;12.00;99.90
33927;DHT22;20485;50.992;5.550;2022-08-07T01:18:34;12.00;99.90
33927;DHT22;20485;50.992;5.550;2022-08-07T01:23:36;11.90;99.90
33927;DHT22;20485;50.992;5.550;2022-08-07T01:26:03;11.80;99.90
33927;DHT22;20485;50.992;5.550;2022-08-07T01:28:29;11.80;99.90
33927;DHT22;20485;50.992;5.550;2022-08-07T01:30:55;11.80;99.90
33927;DHT22;20485;50.992;5.550;2022-08-07T01:33:22;11.70;99.90
33927;DHT22;20485;50.992;5.550;2022-08-07T01:35:49;11.80;99.90
33927;DHT22;20485;50.992;5.550;2022-08-07T01:38:16;11.80;99.90
33927;DHT22;20485;50.992;5.550;2022-08-07T01:40:42;11.60;99.90
33927;DHT22;20485;50.992;5.550;2022-08-07T01:43:10;11.50;99.90
33927;DHT22;20485;50.992;5.550;2022-08-07T01:45:36;11.60;99.90
33927;DHT22;20485;50.992;5.550;2022-08-07T01:48:03;11.60;99.90
33927;DHT22;20485;50.992;5.550;2022-08-07T01:50:31;11.40;99.90
33927;DHT22;20485;50.992;5.550;2022-08-07T01:52:58;11.40;99.90
33927;DHT22;20485;50.992;5.550;2022-08-07T01:55:26;11.40;99.90
33927;DHT22;20485;50.992;5.550;2022-08-07T01:57:55;11.40;99.90
33927;DHT22;20485;50.992;5.550;2022-08-07T02:00:25;11.40;99.90
33927;DHT22;20485;50.992;5.550;2022-08-07T02:03:00;11.30;99.90
33927;DHT22;20485;50.992;5.550;2022-08-07T02:05:35;11.40;99.90
33927;DHT22;20485;50.992;5.550;2022-08-07T02:08:08;11.40;99.90
33927;DHT22;20485;50.992;5.550;2022-08-07T02:10:35;11.30;99.90
33927;DHT22;20485;50.992;5.550;2022-08-07T02:13:03;11.30;99.90
33927;DHT22;20485;50.992;5.550;2022-08-07T02:15:30;11.30;99.90
33927;DHT22;20485;50.992;5.550;2022-08-07T02:17:57;11.20;99.90
33927;DHT22;20485;50.992;5.550;2022-08-07T02:20:24;11.30;99.90
33927;DHT22;20485;50.992;5.550;2022-08-07T02:22:56;11.30;99.90
33927;DHT22;20485;50.992;5.550;2022-08-07T02:25:24;11.20;99.90
33927;DHT22;20485;50.992;5.550;2022-08-07T02:27:51;11.10;99.90
33927;DHT22;20485;50.992;5.550;2022-08-07T02:30:17;11.10;99.90
33927;DHT22;20485;50.992;5.550;2022-08-07T02:32:43;11.00;99.90
33927;DHT22;20485;50.992;5.550;2022-08-07T02:35:10;11.00;99.90
33927;DHT22;20485;50.992;5.550;2022-08-07T02:37:39;10.90;99.90
33927;DHT22;20485;50.992;5.550;2022-08-07T02:40:06;10.90;99.90
33927;DHT22;20485;50.992;5.550;2022-08-07T02:42:33;10.90;99.90
33927;DHT22;20485;50.992;5.550;2022-08-07T02:45:02;10.90;99.90
33927;DHT22;20485;50.992;5.550;2022-08-07T02:47:28;10.90;99.90
33927;DHT22;20485;50.992;5.550;2022-08-07T02:49:54;10.90;99.90
33927;DHT22;20485;50.992;5.550;2022-08-07T02:52:26;10.80;99.90
33927;DHT22;20485;50.992;5.550;2022-08-07T02:54:54;10.80;99.90
33927;DHT22;20485;50.992;5.550;2022-08-07T02:57:22;10.80;99.90
33927;DHT22;20485;50.992;5.550;2022-08-07T02:59:49;10.70;99.90
33927;DHT22;20485;50.992;5.550;2022-08-07T03:02:15;10.70;99.90
33927;DHT22;20485;50.992;5.550;2022-08-07T03:04:43;10.60;99.90
33927;DHT22;20485;50.992;5.550;2022-08-07T03:07:10;10.60;99.90
33927;DHT22;20485;50.992;5.550;2022-08-07T03:09:36;10.60;99.90
33927;DHT22;20485;50.992;5.550;2022-08-07T03:12:03;10.60;99.90
33927;DHT22;20485;50.992;5.550;2022-08-07T03:14:30;10.60;99.90
33927;DHT22;20485;50.992;5.550;2022-08-07T03:16:58;10.60;99.90
33927;DHT22;20485;50.992;5.550;2022-08-07T03:19:24;10.60;99.90
33927;DHT22;20485;50.992;5.550;2022-08-07T03:21:51;10.60;99.90
33927;DHT22;20485;50.992;5.550;2022-08-07T03:24:17;10.60;99.90
33927;DHT22;20485;50.992;5.550;2022-08-07T03:26:44;10.50;99.90
33927;DHT22;20485;50.992;5.550;2022-08-07T03:29:12;10.50;99.90
33927;DHT22;20485;50.992;5.550;2022-08-07T03:31:40;10.50;99.90
33927;DHT22;20485;50.992;5.550;2022-08-07T03:34:09;10.40;99.90
33927;DHT22;20485;50.992;5.550;2022-08-07T03:36:38;10.40;99.90
33927;DHT22;20485;50.992;5.550;2022-08-07T03:39:11;10.30;99.90
33927;DHT22;20485;50.992;5.550;2022-08-07T03:41:38;10.30;99.90
33927;DHT22;20485;50.992;5.550;2022-08-07T03:44:04;10.20;99.90
33927;DHT22;20485;50.992;5.550;2022-08-07T03:46:31;10.30;99.90
33927;DHT22;20485;50.992;5.550;2022-08-07T03:48:57;10.20;99.90
33927;DHT22;20485;50.992;5.550;2022-08-07T03:51:23;10.30;99.90
33927;DHT22;20485;50.992;5.550;2022-08-07T03:53:50;10.30;99.90
33927;DHT22;20485;50.992;5.550;2022-08-07T03:56:20;10.20;99.90
33927;DHT22;20485;50.992;5.550;2022-08-07T03:58:47;11.00;99.90
33927;DHT22;20485;50.992;5.550;2022-08-07T04:01:15;10.10;99.90
33927;DHT22;20485;50.992;5.550;2022-08-07T04:03:41;10.20;99.90
33927;DHT22;20485;50.992;5.550;2022-08-07T04:06:11;10.20;99.90
33927;DHT22;20485;50.992;5.550;2022-08-07T04:08:39;10.10;99.90
33927;DHT22;20485;50.992;5.550;2022-08-07T04:11:07;10.10;99.90
33927;DHT22;20485;50.992;5.550;2022-08-07T04:13:34;10.00;99.90
33927;DHT22;20485;50.992;5.550;2022-08-07T04:16:00;10.00;99.90
33927;DHT22;20485;50.992;5.550;2022-08-07T04:18:26;10.00;99.90
33927;DHT22;20485;50.992;5.550;2022-08-07T04:20:51;10.00;99.90
33927;DHT22;20485;50.992;5.550;2022-08-07T04:23:18;10.00;99.90
33927;DHT22;20485;50.992;5.550;2022-08-07T04:25:46;10.00;99.90
33927;DHT22;20485;50.992;5.550;2022-08-07T04:28:12;10.00;99.90
33927;DHT22;20485;50.992;5.550;2022-08-07T04:30:39;10.10;99.90
33927;DHT22;20485;50.992;5.550;2022-08-07T04:33:07;10.10;99.90
33927;DHT22;20485;50.992;5.550;2022-08-07T04:35:34;10.10;99.90
33927;DHT22;20485;50.992;5.550;2022-08-07T04:38:04;10.10;99.90
33927;DHT22;20485;50.992;5.550;2022-08-07T04:40:30;10.10;99.90
33927;DHT22;20485;50.992;5.550;2022-08-07T04:42:56;10.20;99.90
33927;DHT22;20485;50.992;5.550;2022-08-07T04:45:28;10.20;99.90
33927;DHT22;20485;50.992;5.550;2022-08-07T04:48:06;10.20;99.90
33927;DHT22;20485;50.992;5.550;2022-08-07T04:51:02;10.20;99.90
33927;DHT22;20485;50.992;5.550;2022-08-07T04:53:33;10.20;99.90
33927;DHT22;20485;50.992;5.550;2022-08-07T04:56:16;10.30;99.90
33927;DHT22;20485;50.992;5.550;2022-08-07T04:59:12;10.30;99.90
33927;DHT22;20485;50.992;5.550;2022-08-07T05:04:44;10.30;99.90
33927;DHT22;20485;50.992;5.550;2022-08-07T05:07:29;10.40;99.90
33927;DHT22;20485;50.992;5.550;2022-08-07T05:10:01;10.40;99.90
33927;DHT22;20485;50.992;5.550;2022-08-07T05:12:37;10.50;99.90
33927;DHT22;20485;50.992;5.550;2022-08-07T05:15:15;10.50;99.90
33927;DHT22;20485;50.992;5.550;2022-08-07T05:17:45;10.60;99.90
33927;DHT22;20485;50.992;5.550;2022-08-07T05:20:15;10.70;99.90
33927;DHT22;20485;50.992;5.550;2022-08-07T05:22:44;10.70;99.90
33927;DHT22;20485;50.992;5.550;2022-08-07T05:25:11;10.90;99.90
33927;DHT22;20485;50.992;5.550;2022-08-07T05:27:41;10.90;99.90
33927;DHT22;20485;50.992;5.550;2022-08-07T05:30:07;11.10;99.90
33927;DHT22;20485;50.992;5.550;2022-08-07T05:32:34;11.20;99.90
33927;DHT22;20485;50.992;5.550;2022-08-07T05:35:01;11.30;99.90
33927;DHT22;20485;50.992;5.550;2022-08-07T05:37:28;11.40;99.90
33927;DHT22;20485;50.992;5.550;2022-08-07T05:39:55;11.50;99.90
33927;DHT22;20485;50.992;5.550;2022-08-07T05:42:22;11.50;99.90
33927;DHT22;20485;50.992;5.550;2022-08-07T05:44:48;11.60;99.90
33927;DHT22;20485;50.992;5.550;2022-08-07T05:47:15;11.60;99.90
33927;DHT22;20485;50.992;5.550;2022-08-07T05:49:48;11.80;99.90
33927;DHT22;20485;50.992;5.550;2022-08-07T05:52:15;11.90;99.90
33927;DHT22;20485;50.992;5.550;2022-08-07T05:54:41;12.00;99.90
33927;DHT22;20485;50.992;5.550;2022-08-07T05:57:07;12.10;99.90
33927;DHT22;20485;50.992;5.550;2022-08-07T05:59:37;12.30;99.90
33927;DHT22;20485;50.992;5.550;2022-08-07T06:02:04;12.50;99.90
33927;DHT22;20485;50.992;5.550;2022-08-07T06:04:33;12.60;99.90
33927;DHT22;20485;50.992;5.550;2022-08-07T06:07:01;13.00;99.90
33927;DHT22;20485;50.992;5.550;2022-08-07T06:09:31;13.20;99.90
33927;DHT22;20485;50.992;5.550;2022-08-07T06:11:58;13.40;99.90
33927;DHT22;20485;50.992;5.550;2022-08-07T06:14:23;13.50;99.90
33927;DHT22;20485;50.992;5.550;2022-08-07T06:16:50;13.60;99.90
33927;DHT22;20485;50.992;5.550;2022-08-07T06:19:17;13.70;99.90
33927;DHT22;20485;50.992;5.550;2022-08-07T06:21:45;13.80;99.90
33927;DHT22;20485;50.992;5.550;2022-08-07T06:24:11;13.80;99.90
33927;DHT22;20485;50.992;5.550;2022-08-07T06:26:42;13.80;99.90
33927;DHT22;20485;50.992;5.550;2022-08-07T06:29:08;13.80;99.90
33927;DHT22;20485;50.992;5.550;2022-08-07T06:31:34;13.80;99.90
33927;DHT22;20485;50.992;5.550;2022-08-07T06:34:00;13.80;99.90
33927;DHT22;20485;50.992;5.550;2022-08-07T06:36:26;13.80;99.90
33927;DHT22;20485;50.992;5.550;2022-08-07T06:38:52;13.90;99.90
33927;DHT22;20485;50.992;5.550;2022-08-07T06:41:32;14.00;99.90
33927;DHT22;20485;50.992;5.550;2022-08-07T06:44:00;14.20;99.90
33927;DHT22;20485;50.992;5.550;2022-08-07T06:46:27;14.40;99.90
33927;DHT22;20485;50.992;5.550;2022-08-07T06:48:52;14.50;99.90
33927;DHT22;20485;50.992;5.550;2022-08-07T06:51:21;14.60;99.90
33927;DHT22;20485;50.992;5.550;2022-08-07T06:53:49;14.50;99.90
33927;DHT22;20485;50.992;5.550;2022-08-07T06:56:16;14.40;99.90
33927;DHT22;20485;50.992;5.550;2022-08-07T06:58:43;14.50;99.90
33927;DHT22;20485;50.992;5.550;2022-08-07T07:01:12;14.50;99.90
33927;DHT22;20485;50.992;5.550;2022-08-07T07:03:39;14.70;99.90
33927;DHT22;20485;50.992;5.550;2022-08-07T07:06:09;14.70;99.90
33927;DHT22;20485;50.992;5.550;2022-08-07T07:08:35;14.80;99.90
33927;DHT22;20485;50.992;5.550;2022-08-07T07:11:03;14.80;99.90
33927;DHT22;20485;50.992;5.550;2022-08-07T07:13:38;14.80;99.90
33927;DHT22;20485;50.992;5.550;2022-08-07T07:16:13;14.90;99.90
33927;DHT22;20485;50.992;5.550;2022-08-07T07:18:45;14.90;99.90
33927;DHT22;20485;50.992;5.550;2022-08-07T07:21:17;15.10;99.90
33927;DHT22;20485;50.992;5.550;2022-08-07T07:23:45;15.30;99.90
33927;DHT22;20485;50.992;5.550;2022-08-07T07:26:16;15.40;99.90
33927;DHT22;20485;50.992;5.550;2022-08-07T07:29:02;15.50;99.90
33927;DHT22;20485;50.992;5.550;2022-08-07T07:31:35;15.60;99.90
33927;DHT22;20485;50.992;5.550;2022-08-07T07:34:10;15.60;99.90
33927;DHT22;20485;50.992;5.550;2022-08-07T07:36:38;15.60;99.90
33927;DHT22;20485;50.992;5.550;2022-08-07T07:39:06;15.70;99.90
33927;DHT22;20485;50.992;5.550;2022-08-07T07:41:34;15.70;99.90
33927;DHT22;20485;50.992;5.550;2022-08-07T07:44:01;15.80;99.90
33927;DHT22;20485;50.992;5.550;2022-08-07T07:46:33;15.90;99.90
33927;DHT22;20485;50.992;5.550;2022-08-07T07:49:00;16.00;99.90
33927;DHT22;20485;50.992;5.550;2022-08-07T07:51:27;16.00;99.90
33927;DHT22;20485;50.992;5.550;2022-08-07T07:53:55;16.10;99.90
33927;DHT22;20485;50.992;5.550;2022-08-07T07:56:24;16.20;99.90
33927;DHT22;20485;50.992;5.550;2022-08-07T07:58:52;16.30;99.90
33927;DHT22;20485;50.992;5.550;2022-08-07T08:01:19;16.30;99.90
33927;DHT22;20485;50.992;5.550;2022-08-07T08:03:48;16.40;99.90
33927;DHT22;20485;50.992;5.550;2022-08-07T08:06:15;16.70;99.90
33927;DHT22;20485;50.992;5.550;2022-08-07T08:08:43;16.70;99.90
33927;DHT22;20485;50.992;5.550;2022-08-07T08:11:10;16.80;99.90
33927;DHT22;20485;50.992;5.550;2022-08-07T08:13:47;17.00;99.90
33927;DHT22;20485;50.992;5.550;2022-08-07T08:16:18;17.20;99.90
33927;DHT22;20485;50.992;5.550;2022-08-07T08:18:45;17.30;99.90
33927;DHT22;20485;50.992;5.550;2022-08-07T08:21:14;17.30;99.90
33927;DHT22;20485;50.992;5.550;2022-08-07T08:24:01;17.50;99.90
33927;DHT22;20485;50.992;5.550;2022-08-07T08:26:46;17.70;99.90
33927;DHT22;20485;50.992;5.550;2022-08-07T08:29:31;17.80;99.90
33927;DHT22;20485;50.992;5.550;2022-08-07T08:31:59;17.70;99.90
33927;DHT22;20485;50.992;5.550;2022-08-07T08:34:27;17.70;99.90
33927;DHT22;20485;50.992;5.550;2022-08-07T08:36:56;17.90;99.90
33927;DHT22;20485;50.992;5.550;2022-08-07T08:39:22;18.10;99.90
33927;DHT22;20485;50.992;5.550;2022-08-07T08:41:56;18.00;99.90
33927;DHT22;20485;50.992;5.550;2022-08-07T08:44:47;18.10;99.90
33927;DHT22;20485;50.992;5.550;2022-08-07T08:47:29;18.30;99.90
33927;DHT22;20485;50.992;5.550;2022-08-07T08:52:50;18.50;99.90
33927;DHT22;20485;50.992;5.550;2022-08-07T08:55:29;18.70;99.90
33927;DHT22;20485;50.992;5.550;2022-08-07T08:58:26;19.00;99.90
33927;DHT22;20485;50.992;5.550;2022-08-07T09:00:59;19.00;99.90
33927;DHT22;20485;50.992;5.550;2022-08-07T09:03:36;18.90;99.90
33927;DHT22;20485;50.992;5.550;2022-08-07T09:06:09;18.80;99.90
33927;DHT22;20485;50.992;5.550;2022-08-07T09:09:04;19.00;99.90
33927;DHT22;20485;50.992;5.550;2022-08-07T09:12:49;19.00;99.90
33927;DHT22;20485;50.992;5.550;2022-08-07T09:22:54;19.50;99.90
33927;DHT22;20485;50.992;5.550;2022-08-07T09:28:30;19.50;99.90
33927;DHT22;20485;50.992;5.550;2022-08-07T09:31:06;19.70;99.90
33927;DHT22;20485;50.992;5.550;2022-08-07T09:37:02;19.70;99.90
33927;DHT22;20485;50.992;5.550;2022-08-07T09:53:01;20.30;99.90
33927;DHT22;20485;50.992;5.550;2022-08-07T09:55:49;20.30;99.90
33927;DHT22;20485;50.992;5.550;2022-08-07T10:13:10;20.70;98.60
33927;DHT22;20485;50.992;5.550;2022-08-07T10:15:47;20.80;98.60
33927;DHT22;20485;50.992;5.550;2022-08-07T10:18:33;20.70;97.40
33927;DHT22;20485;50.992;5.550;2022-08-07T10:30:00;20.70;97.30
33927;DHT22;20485;50.992;5.550;2022-08-07T10:35:25;20.80;99.90
33927;DHT22;20485;50.992;5.550;2022-08-07T10:43:51;21.10;98.00
33927;DHT22;20485;50.992;5.550;2022-08-07T10:46:27;21.10;97.50
33927;DHT22;20485;50.992;5.550;2022-08-07T10:49:14;21.10;98.20
33927;DHT22;20485;50.992;5.550;2022-08-07T10:52:09;21.30;98.70
33927;DHT22;20485;50.992;5.550;2022-08-07T11:00:18;21.50;97.30
33927;DHT22;20485;50.992;5.550;2022-08-07T11:03:06;21.50;97.70
33927;DHT22;20485;50.992;5.550;2022-08-07T11:05:45;21.60;95.70
33927;DHT22;20485;50.992;5.550;2022-08-07T11:13:53;21.80;96.70
33927;DHT22;20485;50.992;5.550;2022-08-07T11:16:37;21.80;96.60
33927;DHT22;20485;50.992;5.550;2022-08-07T11:19:35;21.90;96.80
33927;DHT22;20485;50.992;5.550;2022-08-07T11:22:16;22.00;95.00
33927;DHT22;20485;50.992;5.550;2022-08-07T11:30:18;21.90;95.30
33927;DHT22;20485;50.992;5.550;2022-08-07T11:32:53;21.90;93.90
33927;DHT22;20485;50.992;5.550;2022-08-07T11:35:24;22.00;95.40
33927;DHT22;20485;50.992;5.550;2022-08-07T11:38:19;22.00;93.60
33927;DHT22;20485;50.992;5.550;2022-08-07T11:41:12;22.10;95.40
33927;DHT22;20485;50.992;5.550;2022-08-07T11:52:45;21.90;94.50
33927;DHT22;20485;50.992;5.550;2022-08-07T12:00:10;22.30;93.00
33927;DHT22;20485;50.992;5.550;2022-08-07T12:08:29;22.30;92.10
33927;DHT22;20485;50.992;5.550;2022-08-07T12:11:08;22.30;93.00
33927;DHT22;20485;50.992;5.550;2022-08-07T12:13:41;22.40;92.10
33927;DHT22;20485;50.992;5.550;2022-08-07T12:16:31;22.60;94.20
33927;DHT22;20485;50.992;5.550;2022-08-07T12:19:17;22.90;91.40
33927;DHT22;20485;50.992;5.550;2022-08-07T12:27:43;23.00;91.70
33927;DHT22;20485;50.992;5.550;2022-08-07T12:30:11;23.10;92.20
33927;DHT22;20485;50.992;5.550;2022-08-07T12:33:11;23.30;91.70
33927;DHT22;20485;50.992;5.550;2022-08-07T12:35:37;23.30;92.50
33927;DHT22;20485;50.992;5.550;2022-08-07T12:38:06;23.00;91.70
33927;DHT22;20485;50.992;5.550;2022-08-07T12:40:33;23.30;90.60
33927;DHT22;20485;50.992;5.550;2022-08-07T12:43:04;23.30;91.00
33927;DHT22;20485;50.992;5.550;2022-08-07T12:48:44;23.70;90.10
33927;DHT22;20485;50.992;5.550;2022-08-07T12:51:18;23.70;88.90
33927;DHT22;20485;50.992;5.550;2022-08-07T12:56:30;23.50;89.60
33927;DHT22;20485;50.992;5.550;2022-08-07T12:58:58;23.30;88.40
33927;DHT22;20485;50.992;5.550;2022-08-07T13:12:25;24.10;85.60
33927;DHT22;20485;50.992;5.550;2022-08-07T13:17:42;23.90;86.70
33927;DHT22;20485;50.992;5.550;2022-08-07T13:20:24;23.70;87.80
33927;DHT22;20485;50.992;5.550;2022-08-07T13:22:59;23.80;87.20
33927;DHT22;20485;50.992;5.550;2022-08-07T13:25:29;24.10;83.40
33927;DHT22;20485;50.992;5.550;2022-08-07T13:28:14;24.00;83.60
33927;DHT22;20485;50.992;5.550;2022-08-07T13:30:46;24.10;85.70
33927;DHT22;20485;50.992;5.550;2022-08-07T13:33:27;24.40;84.80
33927;DHT22;20485;50.992;5.550;2022-08-07T13:36:05;24.50;84.40
33927;DHT22;20485;50.992;5.550;2022-08-07T13:38:48;24.40;85.60
33927;DHT22;20485;50.992;5.550;2022-08-07T13:43:43;24.70;82.60
33927;DHT22;20485;50.992;5.550;2022-08-07T13:46:12;24.80;83.10
33927;DHT22;20485;50.992;5.550;2022-08-07T13:48:39;24.60;82.10
33927;DHT22;20485;50.992;5.550;2022-08-07T13:51:09;24.50;83.40
33927;DHT22;20485;50.992;5.550;2022-08-07T13:53:40;24.60;83.10
33927;DHT22;20485;50.992;5.550;2022-08-07T13:56:09;24.60;83.90
33927;DHT22;20485;50.992;5.550;2022-08-07T13:58:40;24.60;83.80
33927;DHT22;20485;50.992;5.550;2022-08-07T14:03:55;24.60;86.10
33927;DHT22;20485;50.992;5.550;2022-08-07T14:06:22;24.50;86.10
33927;DHT22;20485;50.992;5.550;2022-08-07T14:08:51;24.40;86.20
33927;DHT22;20485;50.992;5.550;2022-08-07T14:11:21;24.40;85.10
33927;DHT22;20485;50.992;5.550;2022-08-07T14:13:51;24.70;83.60
33927;DHT22;20485;50.992;5.550;2022-08-07T14:16:33;25.10;84.00
33927;DHT22;20485;50.992;5.550;2022-08-07T14:19:02;25.10;84.20
33927;DHT22;20485;50.992;5.550;2022-08-07T14:21:31;25.00;81.60
33927;DHT22;20485;50.992;5.550;2022-08-07T14:24:05;24.90;83.10
33927;DHT22;20485;50.992;5.550;2022-08-07T14:26:58;24.80;82.70
33927;DHT22;20485;50.992;5.550;2022-08-07T14:29:29;25.00;82.60
33927;DHT22;20485;50.992;5.550;2022-08-07T14:32:02;24.90;85.40
33927;DHT22;20485;50.992;5.550;2022-08-07T14:34:31;25.00;84.60
33927;DHT22;20485;50.992;5.550;2022-08-07T14:37:02;25.10;83.20
33927;DHT22;20485;50.992;5.550;2022-08-07T14:39:31;25.10;81.40
33927;DHT22;20485;50.992;5.550;2022-08-07T14:42:02;25.00;82.20
33927;DHT22;20485;50.992;5.550;2022-08-07T14:44:29;24.80;81.60
33927;DHT22;20485;50.992;5.550;2022-08-07T14:46:56;25.10;83.80
33927;DHT22;20485;50.992;5.550;2022-08-07T14:49:33;25.20;80.20
33927;DHT22;20485;50.992;5.550;2022-08-07T14:52:00;25.40;80.00
33927;DHT22;20485;50.992;5.550;2022-08-07T14:54:32;25.40;79.80
33927;DHT22;20485;50.992;5.550;2022-08-07T14:57:00;25.30;82.00
33927;DHT22;20485;50.992;5.550;2022-08-07T14:59:30;25.20;79.90
33927;DHT22;20485;50.992;5.550;2022-08-07T15:02:11;25.50;79.30
33927;DHT22;20485;50.992;5.550;2022-08-07T15:04:42;25.30;81.70
33927;DHT22;20485;50.992;5.550;2022-08-07T15:07:10;25.10;82.00
33927;DHT22;20485;50.992;5.550;2022-08-07T15:09:42;25.10;80.70
33927;DHT22;20485;50.992;5.550;2022-08-07T15:12:18;25.30;80.10
33927;DHT22;20485;50.992;5.550;2022-08-07T15:14:50;25.50;78.90
33927;DHT22;20485;50.992;5.550;2022-08-07T15:17:19;25.80;80.30
33927;DHT22;20485;50.992;5.550;2022-08-07T15:19:52;25.70;79.80
33927;DHT22;20485;50.992;5.550;2022-08-07T15:22:24;26.00;80.80
33927;DHT22;20485;50.992;5.550;2022-08-07T15:24:51;26.20;78.50
33927;DHT22;20485;50.992;5.550;2022-08-07T15:27:23;26.20;79.80
33927;DHT22;20485;50.992;5.550;2022-08-07T15:29:52;27.30;76.10
33927;DHT22;20485;50.992;5.550;2022-08-07T15:32:20;27.60;76.20
33927;DHT22;20485;50.992;5.550;2022-08-07T15:34:53;28.30;73.70
33927;DHT22;20485;50.992;5.550;2022-08-07T15:37:24;28.30;73.70
33927;DHT22;20485;50.992;5.550;2022-08-07T15:39:54;29.50;71.30
33927;DHT22;20485;50.992;5.550;2022-08-07T15:45:03;30.40;69.00
33927;DHT22;20485;50.992;5.550;2022-08-07T15:47:35;30.30;66.30
33927;DHT22;20485;50.992;5.550;2022-08-07T15:50:05;31.00;66.00
33927;DHT22;20485;50.992;5.550;2022-08-07T15:52:34;30.80;66.00
33927;DHT22;20485;50.992;5.550;2022-08-07T15:55:03;30.70;64.00
33927;DHT22;20485;50.992;5.550;2022-08-07T15:57:31;31.00;62.60
33927;DHT22;20485;50.992;5.550;2022-08-07T15:59:58;31.00;63.00
33927;DHT22;20485;50.992;5.550;2022-08-07T16:02:30;29.40;65.70
33927;DHT22;20485;50.992;5.550;2022-08-07T16:05:01;27.60;69.00
33927;DHT22;20485;50.992;5.550;2022-08-07T16:07:38;26.10;70.80
33927;DHT22;20485;50.992;5.550;2022-08-07T16:10:15;25.20;73.30
33927;DHT22;20485;50.992;5.550;2022-08-07T16:22:13;24.20;76.60
33927;DHT22;20485;50.992;5.550;2022-08-07T16:32:26;24.10;78.50
33927;DHT22;20485;50.992;5.550;2022-08-07T16:35:10;23.90;77.90
33927;DHT22;20485;50.992;5.550;2022-08-07T16:41:11;23.90;80.00
33927;DHT22;20485;50.992;5.550;2022-08-07T16:43:42;23.80;80.20
33927;DHT22;20485;50.992;5.550;2022-08-07T16:49:43;23.90;81.30
33927;DHT22;20485;50.992;5.550;2022-08-07T16:55:40;24.00;80.20
33927;DHT22;20485;50.992;5.550;2022-08-07T17:09:26;23.80;82.40
33927;DHT22;20485;50.992;5.550;2022-08-07T17:11:58;23.60;81.70
33927;DHT22;20485;50.992;5.550;2022-08-07T17:15:06;23.50;82.10
33927;DHT22;20485;50.992;5.550;2022-08-07T17:31:47;23.40;82.90
33927;DHT22;20485;50.992;5.550;2022-08-07T17:34:36;23.40;84.10
33927;DHT22;20485;50.992;5.550;2022-08-07T17:37:13;23.30;84.60
33927;DHT22;20485;50.992;5.550;2022-08-07T17:39:54;23.10;84.70
33927;DHT22;20485;50.992;5.550;2022-08-07T17:42:43;23.00;85.00
33927;DHT22;20485;50.992;5.550;2022-08-07T17:45:19;22.90;84.80
33927;DHT22;20485;50.992;5.550;2022-08-07T17:56:31;22.60;85.70
33927;DHT22;20485;50.992;5.550;2022-08-07T17:59:09;22.60;86.60
33927;DHT22;20485;50.992;5.550;2022-08-07T18:04:36;22.50;86.40
33927;DHT22;20485;50.992;5.550;2022-08-07T18:09:35;22.50;87.40
33927;DHT22;20485;50.992;5.550;2022-08-07T18:12:16;22.40;87.40
33927;DHT22;20485;50.992;5.550;2022-08-07T18:14:58;22.40;87.50
33927;DHT22;20485;50.992;5.550;2022-08-07T18:17:46;22.40;87.90
33927;DHT22;20485;50.992;5.550;2022-08-07T18:20:24;22.30;88.60
33927;DHT22;20485;50.992;5.550;2022-08-07T18:23:06;22.20;89.70
33927;DHT22;20485;50.992;5.550;2022-08-07T18:25:34;22.10;90.40
33927;DHT22;20485;50.992;5.550;2022-08-07T18:30:56;22.10;89.70
33927;DHT22;20485;50.992;5.550;2022-08-07T18:42:21;21.60;97.30
33927;DHT22;20485;50.992;5.550;2022-08-07T18:45:12;21.30;98.50
33927;DHT22;20485;50.992;5.550;2022-08-07T18:50:28;20.90;99.80
33927;DHT22;20485;50.992;5.550;2022-08-07T18:53:32;20.70;99.90
33927;DHT22;20485;50.992;5.550;2022-08-07T18:59:13;20.50;99.90
33927;DHT22;20485;50.992;5.550;2022-08-07T19:01:57;20.40;99.90
33927;DHT22;20485;50.992;5.550;2022-08-07T19:07:07;20.40;99.90
33927;DHT22;20485;50.992;5.550;2022-08-07T19:09:53;20.40;98.10
33927;DHT22;20485;50.992;5.550;2022-08-07T19:15:19;20.40;98.70
33927;DHT22;20485;50.992;5.550;2022-08-07T19:18:02;20.90;98.00
33927;DHT22;20485;50.992;5.550;2022-08-07T19:20:49;20.30;98.90
33927;DHT22;20485;50.992;5.550;2022-08-07T19:23:25;20.10;99.60
33927;DHT22;20485;50.992;5.550;2022-08-07T19:25:54;19.90;99.90
33927;DHT22;20485;50.992;5.550;2022-08-07T19:28:22;19.60;99.90
33927;DHT22;20485;50.992;5.550;2022-08-07T19:30:53;19.40;99.90
33927;DHT22;20485;50.992;5.550;2022-08-07T19:33:21;19.20;99.90
33927;DHT22;20485;50.992;5.550;2022-08-07T19:35:53;19.00;99.90
33927;DHT22;20485;50.992;5.550;2022-08-07T19:38:20;18.80;99.90
33927;DHT22;20485;50.992;5.550;2022-08-07T19:40:48;18.60;99.90
33927;DHT22;20485;50.992;5.550;2022-08-07T19:43:19;18.50;99.90
33927;DHT22;20485;50.992;5.550;2022-08-07T19:45:46;18.40;99.90